sensor_id;sensor_type;location;lat;lon;timestamp;P1;durP1;ratioP1;P2;durP2;ratioP2
17614;SDS011;8926;49.720;6.576;2023-04-26T00:01:10;2.17;;;1.80;;
17614;SDS011;8926;49.720;6.576;2023-04-26T00:03:36;2.13;;;1.93;;
17614;SDS011;8926;49.720;6.576;2023-04-26T00:06:01;1.90;;;1.80;;
17614;SDS011;8926;49.720;6.576;2023-04-26T00:08:32;1.93;;;1.80;;
17614;SDS011;8926;49.720;6.576;2023-04-26T00:10:58;2.13;;;1.83;;
17614;SDS011;8926;49.720;6.576;2023-04-26T00:13:23;2.10;;;2.00;;
17614;SDS011;8926;49.720;6.576;2023-04-26T00:15:49;2.27;;;1.83;;
17614;SDS011;8926;49.720;6.576;2023-04-26T00:18:14;2.47;;;1.80;;
17614;SDS011;8926;49.720;6.576;2023-04-26T00:20:41;1.97;;;1.67;;
17614;SDS011;8926;49.720;6.576;2023-04-26T00:23:06;1.53;;;1.43;;
17614;SDS011;8926;49.720;6.576;2023-04-26T00:25:34;1.63;;;1.40;;
17614;SDS011;8926;49.720;6.576;2023-04-26T00:28:00;2.97;;;1.60;;
17614;SDS011;8926;49.720;6.576;2023-04-26T00:30:25;1.93;;;1.47;;
17614;SDS011;8926;49.720;6.576;2023-04-26T00:32:51;1.43;;;1.23;;
17614;SDS011;8926;49.720;6.576;2023-04-26T00:35:16;1.70;;;1.60;;
17614;SDS011;8926;49.720;6.576;2023-04-26T00:37:42;1.67;;;1.50;;
17614;SDS011;8926;49.720;6.576;2023-04-26T00:40:07;2.70;;;1.93;;
17614;SDS011;8926;49.720;6.576;2023-04-26T00:42:33;1.50;;;1.40;;
17614;SDS011;8926;49.720;6.576;2023-04-26T00:44:58;1.60;;;1.50;;
17614;SDS011;8926;49.720;6.576;2023-04-26T00:47:24;1.60;;;1.50;;
17614;SDS011;8926;49.720;6.576;2023-04-26T00:49:50;1.50;;;1.40;;
17614;SDS011;8926;49.720;6.576;2023-04-26T00:52:15;1.50;;;1.30;;
17614;SDS011;8926;49.720;6.576;2023-04-26T00:54:40;1.73;;;1.60;;
17614;SDS011;8926;49.720;6.576;2023-04-26T00:57:06;1.37;;;1.30;;
17614;SDS011;8926;49.720;6.576;2023-04-26T00:59:33;1.40;;;1.30;;
17614;SDS011;8926;49.720;6.576;2023-04-26T01:02:01;1.57;;;1.47;;
17614;SDS011;8926;49.720;6.576;2023-04-26T01:04:27;1.77;;;1.67;;
17614;SDS011;8926;49.720;6.576;2023-04-26T01:06:54;2.83;;;1.63;;
17614;SDS011;8926;49.720;6.576;2023-04-26T01:09:20;1.40;;;1.23;;
17614;SDS011;8926;49.720;6.576;2023-04-26T01:11:45;2.00;;;1.63;;
17614;SDS011;8926;49.720;6.576;2023-04-26T01:14:11;2.13;;;1.77;;
17614;SDS011;8926;49.720;6.576;2023-04-26T01:16:39;2.57;;;1.70;;
17614;SDS011;8926;49.720;6.576;2023-04-26T01:19:08;2.83;;;1.97;;
17614;SDS011;8926;49.720;6.576;2023-04-26T01:21:36;2.53;;;1.83;;
17614;SDS011;8926;49.720;6.576;2023-04-26T01:24:02;1.73;;;1.63;;
17614;SDS011;8926;49.720;6.576;2023-04-26T01:26:27;2.80;;;2.10;;
17614;SDS011;8926;49.720;6.576;2023-04-26T01:28:53;1.97;;;1.70;;
17614;SDS011;8926;49.720;6.576;2023-04-26T01:31:18;1.80;;;1.70;;
17614;SDS011;8926;49.720;6.576;2023-04-26T01:33:43;2.53;;;2.00;;
17614;SDS011;8926;49.720;6.576;2023-04-26T01:36:08;2.97;;;2.00;;
17614;SDS011;8926;49.720;6.576;2023-04-26T01:38:36;1.87;;;1.70;;
17614;SDS011;8926;49.720;6.576;2023-04-26T01:41:02;2.00;;;1.90;;
17614;SDS011;8926;49.720;6.576;2023-04-26T01:43:28;2.17;;;1.97;;
17614;SDS011;8926;49.720;6.576;2023-04-26T01:45:53;1.90;;;1.70;;
17614;SDS011;8926;49.720;6.576;2023-04-26T01:48:19;2.57;;;1.50;;
17614;SDS011;8926;49.720;6.576;2023-04-26T01:50:44;1.87;;;1.77;;
17614;SDS011;8926;49.720;6.576;2023-04-26T01:53:10;3.03;;;1.93;;
17614;SDS011;8926;49.720;6.576;2023-04-26T01:55:35;3.47;;;2.63;;
17614;SDS011;8926;49.720;6.576;2023-04-26T01:58:00;2.40;;;2.20;;
17614;SDS011;8926;49.720;6.576;2023-04-26T02:00:27;2.00;;;1.90;;
17614;SDS011;8926;49.720;6.576;2023-04-26T02:02:56;2.57;;;2.17;;
17614;SDS011;8926;49.720;6.576;2023-04-26T02:05:22;2.63;;;2.37;;
17614;SDS011;8926;49.720;6.576;2023-04-26T02:07:48;2.73;;;2.53;;
17614;SDS011;8926;49.720;6.576;2023-04-26T02:10:14;2.40;;;2.30;;
17614;SDS011;8926;49.720;6.576;2023-04-26T02:12:39;2.60;;;2.40;;
17614;SDS011;8926;49.720;6.576;2023-04-26T02:15:05;2.40;;;2.20;;
17614;SDS011;8926;49.720;6.576;2023-04-26T02:17:32;2.50;;;2.30;;
17614;SDS011;8926;49.720;6.576;2023-04-26T02:19:57;3.07;;;2.80;;
17614;SDS011;8926;49.720;6.576;2023-04-26T02:22:23;2.43;;;2.17;;
17614;SDS011;8926;49.720;6.576;2023-04-26T02:24:49;2.37;;;2.17;;
17614;SDS011;8926;49.720;6.576;2023-04-26T02:27:16;2.03;;;1.90;;
17614;SDS011;8926;49.720;6.576;2023-04-26T02:29:41;2.00;;;1.80;;
17614;SDS011;8926;49.720;6.576;2023-04-26T02:32:07;1.67;;;1.57;;
17614;SDS011;8926;49.720;6.576;2023-04-26T02:34:32;1.97;;;1.80;;
17614;SDS011;8926;49.720;6.576;2023-04-26T02:36:58;2.90;;;2.00;;
17614;SDS011;8926;49.720;6.576;2023-04-26T02:39:23;2.40;;;2.03;;
17614;SDS011;8926;49.720;6.576;2023-04-26T02:41:48;2.60;;;2.40;;
17614;SDS011;8926;49.720;6.576;2023-04-26T02:44:14;2.37;;;1.70;;
17614;SDS011;8926;49.720;6.576;2023-04-26T02:46:40;2.07;;;1.97;;
17614;SDS011;8926;49.720;6.576;2023-04-26T02:49:06;2.10;;;1.93;;
17614;SDS011;8926;49.720;6.576;2023-04-26T02:51:31;2.10;;;1.90;;
17614;SDS011;8926;49.720;6.576;2023-04-26T02:53:57;1.90;;;1.80;;
17614;SDS011;8926;49.720;6.576;2023-04-26T02:56:23;2.00;;;1.90;;
17614;SDS011;8926;49.720;6.576;2023-04-26T02:58:48;1.93;;;1.60;;
17614;SDS011;8926;49.720;6.576;2023-04-26T03:01:13;1.60;;;1.50;;
17614;SDS011;8926;49.720;6.576;2023-04-26T03:03:39;2.43;;;2.23;;
17614;SDS011;8926;49.720;6.576;2023-04-26T03:06:04;2.13;;;1.77;;
17614;SDS011;8926;49.720;6.576;2023-04-26T03:08:30;2.80;;;1.53;;
17614;SDS011;8926;49.720;6.576;2023-04-26T03:10:56;2.00;;;1.80;;
17614;SDS011;8926;49.720;6.576;2023-04-26T03:13:21;1.83;;;1.73;;
17614;SDS011;8926;49.720;6.576;2023-04-26T03:15:47;2.00;;;1.90;;
17614;SDS011;8926;49.720;6.576;2023-04-26T03:18:13;2.10;;;1.70;;
17614;SDS011;8926;49.720;6.576;2023-04-26T03:20:39;2.77;;;2.40;;
17614;SDS011;8926;49.720;6.576;2023-04-26T03:23:05;2.40;;;2.20;;
17614;SDS011;8926;49.720;6.576;2023-04-26T03:25:31;2.33;;;2.13;;
17614;SDS011;8926;49.720;6.576;2023-04-26T03:27:57;1.80;;;1.70;;
17614;SDS011;8926;49.720;6.576;2023-04-26T03:30:23;1.90;;;1.80;;
17614;SDS011;8926;49.720;6.576;2023-04-26T03:32:48;2.07;;;1.97;;
17614;SDS011;8926;49.720;6.576;2023-04-26T03:35:13;3.00;;;1.90;;
17614;SDS011;8926;49.720;6.576;2023-04-26T03:37:42;2.07;;;1.90;;
17614;SDS011;8926;49.720;6.576;2023-04-26T03:40:09;2.10;;;1.77;;
17614;SDS011;8926;49.720;6.576;2023-04-26T03:42:35;2.00;;;1.87;;
17614;SDS011;8926;49.720;6.576;2023-04-26T03:45:01;2.20;;;2.10;;
17614;SDS011;8926;49.720;6.576;2023-04-26T03:47:28;2.03;;;1.93;;
17614;SDS011;8926;49.720;6.576;2023-04-26T03:49:54;2.10;;;1.90;;
17614;SDS011;8926;49.720;6.576;2023-04-26T03:52:20;2.27;;;1.90;;
17614;SDS011;8926;49.720;6.576;2023-04-26T03:54:45;1.67;;;1.57;;
17614;SDS011;8926;49.720;6.576;2023-04-26T03:57:10;1.80;;;1.60;;
17614;SDS011;8926;49.720;6.576;2023-04-26T03:59:36;1.80;;;1.70;;
17614;SDS011;8926;49.720;6.576;2023-04-26T04:02:02;2.00;;;1.90;;
17614;SDS011;8926;49.720;6.576;2023-04-26T04:04:27;2.50;;;2.30;;
17614;SDS011;8926;49.720;6.576;2023-04-26T04:06:52;2.47;;;2.30;;
17614;SDS011;8926;49.720;6.576;2023-04-26T04:09:18;2.70;;;2.50;;
17614;SDS011;8926;49.720;6.576;2023-04-26T04:11:43;2.73;;;2.30;;
17614;SDS011;8926;49.720;6.576;2023-04-26T04:14:12;3.20;;;2.90;;
17614;SDS011;8926;49.720;6.576;2023-04-26T04:16:37;5.63;;;2.60;;
17614;SDS011;8926;49.720;6.576;2023-04-26T04:19:02;2.87;;;2.63;;
17614;SDS011;8926;49.720;6.576;2023-04-26T04:21:28;3.23;;;2.93;;
17614;SDS011;8926;49.720;6.576;2023-04-26T04:23:53;3.30;;;3.00;;
17614;SDS011;8926;49.720;6.576;2023-04-26T04:26:18;3.07;;;2.60;;
17614;SDS011;8926;49.720;6.576;2023-04-26T04:28:44;3.90;;;3.50;;
17614;SDS011;8926;49.720;6.576;2023-04-26T04:31:11;2.37;;;2.20;;
17614;SDS011;8926;49.720;6.576;2023-04-26T04:33:36;2.63;;;2.33;;
17614;SDS011;8926;49.720;6.576;2023-04-26T04:36:02;2.23;;;2.13;;
17614;SDS011;8926;49.720;6.576;2023-04-26T04:38:28;2.60;;;2.40;;
17614;SDS011;8926;49.720;6.576;2023-04-26T04:40:54;2.73;;;2.30;;
17614;SDS011;8926;49.720;6.576;2023-04-26T04:43:20;2.03;;;1.90;;
17614;SDS011;8926;49.720;6.576;2023-04-26T04:45:52;1.97;;;1.80;;
17614;SDS011;8926;49.720;6.576;2023-04-26T04:48:17;2.27;;;2.13;;
17614;SDS011;8926;49.720;6.576;2023-04-26T04:50:44;1.93;;;1.83;;
17614;SDS011;8926;49.720;6.576;2023-04-26T04:53:09;2.20;;;2.10;;
17614;SDS011;8926;49.720;6.576;2023-04-26T04:55:45;5.17;;;2.80;;
17614;SDS011;8926;49.720;6.576;2023-04-26T04:58:10;2.73;;;2.53;;
17614;SDS011;8926;49.720;6.576;2023-04-26T05:00:37;3.20;;;3.00;;
17614;SDS011;8926;49.720;6.576;2023-04-26T05:03:03;2.90;;;2.70;;
17614;SDS011;8926;49.720;6.576;2023-04-26T05:05:29;2.67;;;2.47;;
17614;SDS011;8926;49.720;6.576;2023-04-26T05:07:55;3.03;;;2.83;;
17614;SDS011;8926;49.720;6.576;2023-04-26T05:10:20;2.70;;;2.50;;
17614;SDS011;8926;49.720;6.576;2023-04-26T05:12:45;2.77;;;2.57;;
17614;SDS011;8926;49.720;6.576;2023-04-26T05:15:11;2.70;;;2.50;;
17614;SDS011;8926;49.720;6.576;2023-04-26T05:17:36;2.90;;;2.70;;
17614;SDS011;8926;49.720;6.576;2023-04-26T05:20:02;3.00;;;2.80;;
17614;SDS011;8926;49.720;6.576;2023-04-26T05:22:30;2.60;;;2.30;;
17614;SDS011;8926;49.720;6.576;2023-04-26T05:24:56;3.07;;;2.83;;
17614;SDS011;8926;49.720;6.576;2023-04-26T05:27:21;3.07;;;2.87;;
17614;SDS011;8926;49.720;6.576;2023-04-26T05:29:46;2.97;;;2.77;;
17614;SDS011;8926;49.720;6.576;2023-04-26T05:32:12;2.90;;;2.60;;
17614;SDS011;8926;49.720;6.576;2023-04-26T05:34:37;3.07;;;2.77;;
17614;SDS011;8926;49.720;6.576;2023-04-26T05:37:03;2.40;;;2.20;;
17614;SDS011;8926;49.720;6.576;2023-04-26T05:39:28;2.63;;;2.43;;
17614;SDS011;8926;49.720;6.576;2023-04-26T05:41:54;2.87;;;2.67;;
17614;SDS011;8926;49.720;6.576;2023-04-26T05:44:19;2.50;;;2.30;;
17614;SDS011;8926;49.720;6.576;2023-04-26T05:46:45;2.20;;;2.10;;
17614;SDS011;8926;49.720;6.576;2023-04-26T05:49:10;2.57;;;2.37;;
17614;SDS011;8926;49.720;6.576;2023-04-26T05:51:36;2.03;;;1.93;;
17614;SDS011;8926;49.720;6.576;2023-04-26T05:54:01;2.20;;;2.00;;
17614;SDS011;8926;49.720;6.576;2023-04-26T05:56:26;2.70;;;2.50;;
17614;SDS011;8926;49.720;6.576;2023-04-26T05:58:51;2.50;;;2.30;;
17614;SDS011;8926;49.720;6.576;2023-04-26T06:01:17;2.30;;;2.20;;
17614;SDS011;8926;49.720;6.576;2023-04-26T06:03:43;2.80;;;2.60;;
17614;SDS011;8926;49.720;6.576;2023-04-26T06:06:09;3.10;;;2.60;;
17614;SDS011;8926;49.720;6.576;2023-04-26T06:08:34;2.27;;;2.17;;
17614;SDS011;8926;49.720;6.576;2023-04-26T06:11:00;3.20;;;2.57;;
17614;SDS011;8926;49.720;6.576;2023-04-26T06:13:25;5.40;;;4.10;;
17614;SDS011;8926;49.720;6.576;2023-04-26T06:15:51;5.93;;;3.57;;
17614;SDS011;8926;49.720;6.576;2023-04-26T06:18:17;3.80;;;3.47;;
17614;SDS011;8926;49.720;6.576;2023-04-26T06:20:42;3.50;;;3.00;;
17614;SDS011;8926;49.720;6.576;2023-04-26T06:23:08;4.73;;;4.07;;
17614;SDS011;8926;49.720;6.576;2023-04-26T06:25:33;3.77;;;3.47;;
17614;SDS011;8926;49.720;6.576;2023-04-26T06:27:58;4.07;;;3.47;;
17614;SDS011;8926;49.720;6.576;2023-04-26T06:30:24;4.03;;;3.60;;
17614;SDS011;8926;49.720;6.576;2023-04-26T06:32:50;3.63;;;3.33;;
17614;SDS011;8926;49.720;6.576;2023-04-26T06:35:15;3.13;;;2.80;;
17614;SDS011;8926;49.720;6.576;2023-04-26T06:37:40;4.43;;;4.03;;
17614;SDS011;8926;49.720;6.576;2023-04-26T06:40:06;2.93;;;2.73;;
17614;SDS011;8926;49.720;6.576;2023-04-26T06:42:32;3.80;;;3.50;;
17614;SDS011;8926;49.720;6.576;2023-04-26T06:44:57;3.20;;;3.00;;
17614;SDS011;8926;49.720;6.576;2023-04-26T06:47:22;2.90;;;2.67;;
17614;SDS011;8926;49.720;6.576;2023-04-26T06:49:48;3.00;;;2.80;;
17614;SDS011;8926;49.720;6.576;2023-04-26T06:52:13;3.80;;;3.50;;
17614;SDS011;8926;49.720;6.576;2023-04-26T06:54:38;3.87;;;2.80;;
17614;SDS011;8926;49.720;6.576;2023-04-26T06:57:03;3.50;;;3.20;;
17614;SDS011;8926;49.720;6.576;2023-04-26T06:59:29;3.63;;;3.33;;
17614;SDS011;8926;49.720;6.576;2023-04-26T07:01:54;4.53;;;3.57;;
17614;SDS011;8926;49.720;6.576;2023-04-26T07:04:19;4.20;;;3.83;;
17614;SDS011;8926;49.720;6.576;2023-04-26T07:06:45;3.20;;;2.97;;
17614;SDS011;8926;49.720;6.576;2023-04-26T07:09:11;2.90;;;2.70;;
17614;SDS011;8926;49.720;6.576;2023-04-26T07:11:37;3.27;;;2.97;;
17614;SDS011;8926;49.720;6.576;2023-04-26T07:14:03;3.10;;;2.80;;
17614;SDS011;8926;49.720;6.576;2023-04-26T07:16:28;2.70;;;2.50;;
17614;SDS011;8926;49.720;6.576;2023-04-26T07:18:55;3.00;;;2.80;;
17614;SDS011;8926;49.720;6.576;2023-04-26T07:21:23;2.70;;;2.50;;
17614;SDS011;8926;49.720;6.576;2023-04-26T07:23:54;3.83;;;3.43;;
17614;SDS011;8926;49.720;6.576;2023-04-26T07:26:20;3.80;;;3.50;;
17614;SDS011;8926;49.720;6.576;2023-04-26T07:28:46;3.10;;;2.90;;
17614;SDS011;8926;49.720;6.576;2023-04-26T07:31:11;3.10;;;2.50;;
17614;SDS011;8926;49.720;6.576;2023-04-26T07:33:37;3.20;;;2.90;;
17614;SDS011;8926;49.720;6.576;2023-04-26T07:36:03;3.43;;;3.23;;
17614;SDS011;8926;49.720;6.576;2023-04-26T07:38:29;2.87;;;2.60;;
17614;SDS011;8926;49.720;6.576;2023-04-26T07:40:54;2.93;;;2.70;;
17614;SDS011;8926;49.720;6.576;2023-04-26T07:43:20;3.13;;;2.87;;
17614;SDS011;8926;49.720;6.576;2023-04-26T07:45:45;5.40;;;3.73;;
17614;SDS011;8926;49.720;6.576;2023-04-26T07:48:11;3.53;;;3.23;;
17614;SDS011;8926;49.720;6.576;2023-04-26T07:50:37;3.43;;;3.13;;
17614;SDS011;8926;49.720;6.576;2023-04-26T07:53:02;2.90;;;2.70;;
17614;SDS011;8926;49.720;6.576;2023-04-26T07:55:28;3.73;;;3.40;;
17614;SDS011;8926;49.720;6.576;2023-04-26T07:57:53;4.50;;;3.73;;
17614;SDS011;8926;49.720;6.576;2023-04-26T08:00:18;3.47;;;3.17;;
17614;SDS011;8926;49.720;6.576;2023-04-26T08:02:46;3.70;;;3.40;;
17614;SDS011;8926;49.720;6.576;2023-04-26T08:05:11;3.63;;;3.33;;
17614;SDS011;8926;49.720;6.576;2023-04-26T08:07:37;3.90;;;3.53;;
17614;SDS011;8926;49.720;6.576;2023-04-26T08:10:03;3.07;;;2.87;;
17614;SDS011;8926;49.720;6.576;2023-04-26T08:12:29;2.80;;;2.60;;
17614;SDS011;8926;49.720;6.576;2023-04-26T08:14:54;4.20;;;3.40;;
17614;SDS011;8926;49.720;6.576;2023-04-26T08:17:19;3.63;;;3.30;;
17614;SDS011;8926;49.720;6.576;2023-04-26T08:19:45;4.83;;;3.57;;
17614;SDS011;8926;49.720;6.576;2023-04-26T08:22:10;3.00;;;2.80;;
17614;SDS011;8926;49.720;6.576;2023-04-26T08:24:35;3.30;;;3.00;;
17614;SDS011;8926;49.720;6.576;2023-04-26T08:27:00;2.93;;;2.47;;
17614;SDS011;8926;49.720;6.576;2023-04-26T08:29:26;3.57;;;3.27;;
17614;SDS011;8926;49.720;6.576;2023-04-26T08:31:52;4.37;;;3.30;;
17614;SDS011;8926;49.720;6.576;2023-04-26T08:34:18;4.43;;;3.43;;
17614;SDS011;8926;49.720;6.576;2023-04-26T08:36:43;3.07;;;2.50;;
17614;SDS011;8926;49.720;6.576;2023-04-26T08:39:09;2.87;;;2.67;;
17614;SDS011;8926;49.720;6.576;2023-04-26T08:41:36;2.77;;;2.50;;
17614;SDS011;8926;49.720;6.576;2023-04-26T08:44:07;3.00;;;2.80;;
17614;SDS011;8926;49.720;6.576;2023-04-26T08:46:39;3.93;;;2.83;;
17614;SDS011;8926;49.720;6.576;2023-04-26T08:49:21;4.23;;;2.93;;
17614;SDS011;8926;49.720;6.576;2023-04-26T08:51:56;2.97;;;2.70;;
17614;SDS011;8926;49.720;6.576;2023-04-26T08:54:22;3.03;;;2.77;;
17614;SDS011;8926;49.720;6.576;2023-04-26T08:56:49;3.50;;;3.07;;
17614;SDS011;8926;49.720;6.576;2023-04-26T08:59:15;4.23;;;2.83;;
17614;SDS011;8926;49.720;6.576;2023-04-26T09:01:42;2.60;;;2.40;;
17614;SDS011;8926;49.720;6.576;2023-04-26T09:04:08;2.70;;;2.50;;
17614;SDS011;8926;49.720;6.576;2023-04-26T09:06:34;3.60;;;2.83;;
17614;SDS011;8926;49.720;6.576;2023-04-26T09:09:01;3.33;;;3.03;;
17614;SDS011;8926;49.720;6.576;2023-04-26T09:11:28;3.27;;;3.07;;
17614;SDS011;8926;49.720;6.576;2023-04-26T09:13:54;3.20;;;2.57;;
17614;SDS011;8926;49.720;6.576;2023-04-26T09:16:33;2.53;;;2.33;;
17614;SDS011;8926;49.720;6.576;2023-04-26T09:18:59;3.13;;;2.40;;
17614;SDS011;8926;49.720;6.576;2023-04-26T09:21:25;2.53;;;2.33;;
17614;SDS011;8926;49.720;6.576;2023-04-26T09:23:55;2.40;;;2.20;;
17614;SDS011;8926;49.720;6.576;2023-04-26T09:26:28;2.23;;;2.10;;
17614;SDS011;8926;49.720;6.576;2023-04-26T09:34:09;2.60;;;1.93;;
17614;SDS011;8926;49.720;6.576;2023-04-26T09:39:26;3.17;;;1.90;;
17614;SDS011;8926;49.720;6.576;2023-04-26T09:41:55;2.50;;;2.20;;
17614;SDS011;8926;49.720;6.576;2023-04-26T09:44:22;2.83;;;2.20;;
17614;SDS011;8926;49.720;6.576;2023-04-26T09:49:26;2.77;;;2.00;;
17614;SDS011;8926;49.720;6.576;2023-04-26T09:54:36;1.93;;;1.67;;
17614;SDS011;8926;49.720;6.576;2023-04-26T09:57:07;2.47;;;1.80;;
17614;SDS011;8926;49.720;6.576;2023-04-26T09:59:42;3.57;;;2.10;;
17614;SDS011;8926;49.720;6.576;2023-04-26T10:02:24;5.47;;;2.87;;
17614;SDS011;8926;49.720;6.576;2023-04-26T10:04:52;3.17;;;1.90;;
17614;SDS011;8926;49.720;6.576;2023-04-26T10:07:21;2.83;;;2.40;;
17614;SDS011;8926;49.720;6.576;2023-04-26T10:09:48;4.03;;;1.80;;
17614;SDS011;8926;49.720;6.576;2023-04-26T10:12:14;2.20;;;1.97;;
17614;SDS011;8926;49.720;6.576;2023-04-26T10:14:42;2.67;;;2.20;;
17614;SDS011;8926;49.720;6.576;2023-04-26T10:17:08;2.83;;;2.30;;
17614;SDS011;8926;49.720;6.576;2023-04-26T10:19:36;3.53;;;2.13;;
17614;SDS011;8926;49.720;6.576;2023-04-26T10:24:52;4.70;;;2.73;;
17614;SDS011;8926;49.720;6.576;2023-04-26T10:30:12;2.43;;;2.07;;
17614;SDS011;8926;49.720;6.576;2023-04-26T10:33:09;3.27;;;1.67;;
17614;SDS011;8926;49.720;6.576;2023-04-26T10:35:37;2.80;;;1.97;;
17614;SDS011;8926;49.720;6.576;2023-04-26T10:38:24;3.43;;;1.70;;
17614;SDS011;8926;49.720;6.576;2023-04-26T10:40:50;1.87;;;1.77;;
17614;SDS011;8926;49.720;6.576;2023-04-26T10:45:44;1.50;;;1.40;;
17614;SDS011;8926;49.720;6.576;2023-04-26T10:53:33;3.40;;;2.00;;
17614;SDS011;8926;49.720;6.576;2023-04-26T10:58:48;3.17;;;1.90;;
17614;SDS011;8926;49.720;6.576;2023-04-26T11:01:30;2.00;;;1.80;;
17614;SDS011;8926;49.720;6.576;2023-04-26T11:06:22;2.10;;;1.40;;
17614;SDS011;8926;49.720;6.576;2023-04-26T11:08:51;2.37;;;1.70;;
17614;SDS011;8926;49.720;6.576;2023-04-26T11:11:17;1.83;;;1.63;;
17614;SDS011;8926;49.720;6.576;2023-04-26T11:13:43;2.37;;;1.50;;
17614;SDS011;8926;49.720;6.576;2023-04-26T11:16:11;2.53;;;1.50;;
17614;SDS011;8926;49.720;6.576;2023-04-26T11:18:38;1.53;;;1.30;;
17614;SDS011;8926;49.720;6.576;2023-04-26T11:21:05;1.80;;;1.70;;
17614;SDS011;8926;49.720;6.576;2023-04-26T11:23:31;2.03;;;1.60;;
17614;SDS011;8926;49.720;6.576;2023-04-26T11:26:00;3.33;;;1.70;;
17614;SDS011;8926;49.720;6.576;2023-04-26T11:28:28;1.60;;;1.30;;
17614;SDS011;8926;49.720;6.576;2023-04-26T11:30:57;2.67;;;2.30;;
17614;SDS011;8926;49.720;6.576;2023-04-26T11:33:23;2.47;;;1.63;;
17614;SDS011;8926;49.720;6.576;2023-04-26T11:35:52;2.57;;;1.67;;
17614;SDS011;8926;49.720;6.576;2023-04-26T11:38:21;1.97;;;1.73;;
17614;SDS011;8926;49.720;6.576;2023-04-26T11:40:54;2.70;;;1.83;;
17614;SDS011;8926;49.720;6.576;2023-04-26T11:46:04;1.13;;;0.90;;
17614;SDS011;8926;49.720;6.576;2023-04-26T11:48:32;1.70;;;1.50;;
17614;SDS011;8926;49.720;6.576;2023-04-26T11:50:59;4.43;;;2.00;;
17614;SDS011;8926;49.720;6.576;2023-04-26T11:53:39;1.33;;;1.23;;
17614;SDS011;8926;49.720;6.576;2023-04-26T11:56:15;2.20;;;1.60;;
17614;SDS011;8926;49.720;6.576;2023-04-26T11:58:43;1.47;;;1.37;;
17614;SDS011;8926;49.720;6.576;2023-04-26T12:01:09;2.33;;;1.33;;
17614;SDS011;8926;49.720;6.576;2023-04-26T12:03:34;1.63;;;1.30;;
17614;SDS011;8926;49.720;6.576;2023-04-26T12:06:01;1.73;;;1.40;;
17614;SDS011;8926;49.720;6.576;2023-04-26T12:08:27;1.03;;;0.90;;
17614;SDS011;8926;49.720;6.576;2023-04-26T12:10:53;2.20;;;1.30;;
17614;SDS011;8926;49.720;6.576;2023-04-26T12:13:19;1.47;;;1.23;;
17614;SDS011;8926;49.720;6.576;2023-04-26T12:15:44;1.40;;;1.00;;
17614;SDS011;8926;49.720;6.576;2023-04-26T12:18:11;1.40;;;1.17;;
17614;SDS011;8926;49.720;6.576;2023-04-26T12:20:37;1.47;;;1.20;;
17614;SDS011;8926;49.720;6.576;2023-04-26T12:23:12;1.40;;;1.30;;
17614;SDS011;8926;49.720;6.576;2023-04-26T12:25:38;2.60;;;1.63;;
17614;SDS011;8926;49.720;6.576;2023-04-26T12:28:08;1.93;;;1.60;;
17614;SDS011;8926;49.720;6.576;2023-04-26T12:30:38;1.43;;;1.10;;
17614;SDS011;8926;49.720;6.576;2023-04-26T12:33:04;1.73;;;1.37;;
17614;SDS011;8926;49.720;6.576;2023-04-26T12:35:30;1.70;;;1.60;;
17614;SDS011;8926;49.720;6.576;2023-04-26T12:37:56;1.67;;;1.53;;
17614;SDS011;8926;49.720;6.576;2023-04-26T12:40:24;2.47;;;1.47;;
17614;SDS011;8926;49.720;6.576;2023-04-26T12:42:50;2.40;;;1.50;;
17614;SDS011;8926;49.720;6.576;2023-04-26T12:45:17;2.63;;;1.63;;
17614;SDS011;8926;49.720;6.576;2023-04-26T12:47:46;3.27;;;1.93;;
17614;SDS011;8926;49.720;6.576;2023-04-26T12:50:12;2.23;;;1.67;;
17614;SDS011;8926;49.720;6.576;2023-04-26T12:52:38;2.60;;;1.80;;
17614;SDS011;8926;49.720;6.576;2023-04-26T12:55:07;2.57;;;1.70;;
17614;SDS011;8926;49.720;6.576;2023-04-26T12:57:35;2.03;;;1.37;;
17614;SDS011;8926;49.720;6.576;2023-04-26T13:00:01;3.57;;;1.43;;
17614;SDS011;8926;49.720;6.576;2023-04-26T13:02:28;2.20;;;1.40;;
17614;SDS011;8926;49.720;6.576;2023-04-26T13:04:53;2.60;;;1.63;;
17614;SDS011;8926;49.720;6.576;2023-04-26T13:07:19;1.53;;;1.10;;
17614;SDS011;8926;49.720;6.576;2023-04-26T13:09:44;3.40;;;1.97;;
17614;SDS011;8926;49.720;6.576;2023-04-26T13:12:09;2.53;;;1.47;;
17614;SDS011;8926;49.720;6.576;2023-04-26T13:14:35;5.17;;;1.70;;
17614;SDS011;8926;49.720;6.576;2023-04-26T13:17:02;1.87;;;1.30;;
17614;SDS011;8926;49.720;6.576;2023-04-26T13:19:28;1.23;;;1.10;;
17614;SDS011;8926;49.720;6.576;2023-04-26T13:21:53;1.00;;;0.90;;
17614;SDS011;8926;49.720;6.576;2023-04-26T13:24:19;1.67;;;0.90;;
17614;SDS011;8926;49.720;6.576;2023-04-26T13:26:44;1.40;;;1.10;;
17614;SDS011;8926;49.720;6.576;2023-04-26T13:29:09;1.70;;;1.50;;
17614;SDS011;8926;49.720;6.576;2023-04-26T13:31:35;1.70;;;1.20;;
17614;SDS011;8926;49.720;6.576;2023-04-26T13:34:01;1.23;;;1.10;;
17614;SDS011;8926;49.720;6.576;2023-04-26T13:36:27;1.67;;;1.40;;
17614;SDS011;8926;49.720;6.576;2023-04-26T13:38:53;1.77;;;1.20;;
17614;SDS011;8926;49.720;6.576;2023-04-26T13:41:18;1.07;;;1.00;;
17614;SDS011;8926;49.720;6.576;2023-04-26T13:43:44;1.90;;;1.20;;
17614;SDS011;8926;49.720;6.576;2023-04-26T13:46:09;3.37;;;1.77;;
17614;SDS011;8926;49.720;6.576;2023-04-26T13:48:34;3.43;;;2.17;;
17614;SDS011;8926;49.720;6.576;2023-04-26T13:51:00;2.67;;;1.60;;
17614;SDS011;8926;49.720;6.576;2023-04-26T13:53:26;2.03;;;1.30;;
17614;SDS011;8926;49.720;6.576;2023-04-26T13:55:51;1.50;;;1.40;;
17614;SDS011;8926;49.720;6.576;2023-04-26T13:58:17;2.27;;;1.63;;
17614;SDS011;8926;49.720;6.576;2023-04-26T14:00:42;2.77;;;1.30;;
17614;SDS011;8926;49.720;6.576;2023-04-26T14:03:07;1.50;;;1.40;;
17614;SDS011;8926;49.720;6.576;2023-04-26T14:05:33;1.90;;;1.70;;
17614;SDS011;8926;49.720;6.576;2023-04-26T14:07:58;2.20;;;1.70;;
17614;SDS011;8926;49.720;6.576;2023-04-26T14:10:23;2.17;;;1.33;;
17614;SDS011;8926;49.720;6.576;2023-04-26T14:12:50;1.27;;;1.00;;
17614;SDS011;8926;49.720;6.576;2023-04-26T14:15:15;1.73;;;1.00;;
17614;SDS011;8926;49.720;6.576;2023-04-26T14:17:40;0.63;;;0.63;;
17614;SDS011;8926;49.720;6.576;2023-04-26T14:20:06;2.03;;;1.40;;
17614;SDS011;8926;49.720;6.576;2023-04-26T14:22:32;1.47;;;1.30;;
17614;SDS011;8926;49.720;6.576;2023-04-26T14:24:58;1.67;;;1.20;;
17614;SDS011;8926;49.720;6.576;2023-04-26T14:27:23;1.00;;;0.90;;
17614;SDS011;8926;49.720;6.576;2023-04-26T14:32:13;1.10;;;1.00;;
17614;SDS011;8926;49.720;6.576;2023-04-26T14:34:39;0.73;;;0.70;;
17614;SDS011;8926;49.720;6.576;2023-04-26T14:37:05;1.63;;;1.10;;
17614;SDS011;8926;49.720;6.576;2023-04-26T14:39:30;2.40;;;1.30;;
17614;SDS011;8926;49.720;6.576;2023-04-26T14:41:56;3.73;;;2.57;;
17614;SDS011;8926;49.720;6.576;2023-04-26T14:44:25;3.87;;;1.73;;
17614;SDS011;8926;49.720;6.576;2023-04-26T14:46:51;1.63;;;1.20;;
17614;SDS011;8926;49.720;6.576;2023-04-26T14:49:17;1.63;;;1.40;;
17614;SDS011;8926;49.720;6.576;2023-04-26T14:51:43;5.30;;;1.70;;
17614;SDS011;8926;49.720;6.576;2023-04-26T14:54:09;1.77;;;1.30;;
17614;SDS011;8926;49.720;6.576;2023-04-26T14:56:34;1.53;;;0.90;;
17614;SDS011;8926;49.720;6.576;2023-04-26T14:59:00;2.07;;;1.50;;
17614;SDS011;8926;49.720;6.576;2023-04-26T15:01:26;2.90;;;1.50;;
17614;SDS011;8926;49.720;6.576;2023-04-26T15:03:52;2.27;;;1.20;;
17614;SDS011;8926;49.720;6.576;2023-04-26T15:06:17;0.80;;;0.80;;
17614;SDS011;8926;49.720;6.576;2023-04-26T15:08:42;0.50;;;0.50;;
17614;SDS011;8926;49.720;6.576;2023-04-26T15:11:08;1.00;;;0.90;;
17614;SDS011;8926;49.720;6.576;2023-04-26T15:13:33;2.20;;;0.80;;
17614;SDS011;8926;49.720;6.576;2023-04-26T15:16:05;0.80;;;0.80;;
17614;SDS011;8926;49.720;6.576;2023-04-26T15:18:30;0.87;;;0.67;;
17614;SDS011;8926;49.720;6.576;2023-04-26T15:20:56;2.27;;;1.60;;
17614;SDS011;8926;49.720;6.576;2023-04-26T15:23:22;1.47;;;1.20;;
17614;SDS011;8926;49.720;6.576;2023-04-26T15:25:47;2.83;;;1.17;;
17614;SDS011;8926;49.720;6.576;2023-04-26T15:28:13;1.00;;;0.80;;
17614;SDS011;8926;49.720;6.576;2023-04-26T15:30:38;1.00;;;0.77;;
17614;SDS011;8926;49.720;6.576;2023-04-26T15:33:03;1.10;;;1.00;;